Skip to main content.
 TIME   TEMPERATURE   WINDSPEED   DIRECTION   HUMIDITY   BAROMETER   RAINFALL 
6:30 24.0°C (75.2°F) 16.7 kmh (10.4 mph) WNW 88% 1015.9hPa (30.00 inHg) 0.0mm (0.00 in.)
5:30 25.0°C (77.0 °F) 20.4 kmh (12.7 mph) WNW 83% 1015.9hPa (30.00 inHg) 0.0mm (0.00 in.)
4:30 25.0°C (77.0 °F) 16.7 kmh (10.4 mph) WNW 83% 1015.9hPa (30.00 inHg) 0.0mm (0.00 in.)
3:30 25.0°C (77.0 °F) 14.8 kmh (9.2 mph) W 83% 1016.9hPa (30.03 inHg) 0.0mm (0.00 in.)
2:30 25.0°C (77.0 °F) 11.1 kmh (6.9 mph) W 83% 1016.9hPa (30.03 inHg) 0.0mm (0.00 in.)
1:30 25.0°C (77.0 °F) 18.5 kmh (11.5 mph) WNW 83% 1017.9hPa (30.06 inHg) 0.0mm (0.00 in.)
0:30 25.0°C (77.0 °F) 14.8 kmh (9.2 mph) W 83% 1017.9hPa (30.06 inHg) 0.0mm (0.00 in.)
23:29 25.0°C (77.0 °F) 11.1 kmh (6.9 mph) WSW 83% 1017.9hPa (30.06 inHg) 0.0mm (0.00 in.)
22:29 25.0°C (77.0 °F) 9.3 kmh (5.8 mph) W 83% 1017.9hPa (30.06 inHg) 0.0mm (0.00 in.)
21:29 25.0°C (77.0 °F) 9.3 kmh (5.8 mph) W 83% 1017.9hPa (30.06 inHg) 0.0mm (0.00 in.)
20:29 25.0°C (77.0 °F) 11.1 kmh (6.9 mph) W 78% 1017.9hPa (30.06 inHg) 0.0mm (0.00 in.)
19:29 26.0°C (78.8 °F) 13.0 kmh (8.1 mph) W 73% 1017.9hPa (30.06 inHg) 0.0mm (0.00 in.)
18:29 26.0°C (78.8 °F) 16.7 kmh (10.4 mph) W 73% 1017.9hPa (30.06 inHg) 0.0mm (0.00 in.)
17:29 27.0°C (80.6 °F) 20.4 kmh (12.7 mph) W 69% 1017.9hPa (30.06 inHg) 0.0mm (0.00 in.)
16:29 28.0°C (82.4 °F) 13.0 kmh (8.1 mph) WSW 65% 1017.9hPa (30.06 inHg) 0.0mm (0.00 in.)
15:29 28.0°C (82.4 °F) 22.2 kmh (13.8 mph) WSW 65% 1017.9hPa (30.06 inHg) 0.0mm (0.00 in.)
14:29 28.0°C (82.4 °F) 22.2 kmh (13.8 mph) WSW 65% 1019.0hPa (30.09 inHg) 0.0mm (0.00 in.)
13:29 28.0°C (82.4 °F) 18.5 kmh (11.5 mph) SW 65% 1019.0hPa (30.09 inHg) 0.0mm (0.00 in.)
12:29 28.0°C (82.4 °F) 16.7 kmh (10.4 mph) SW 65% 1019.0hPa (30.09 inHg) 0.0mm (0.00 in.)
11:29 27.0°C (80.6 °F) 14.8 kmh (9.2 mph) SW 65% 1019.0hPa (30.09 inHg) 0.0mm (0.00 in.)
10:29 27.0°C (80.6 °F) 16.7 kmh (10.4 mph) SW 65% 1019.0hPa (30.09 inHg) 0.0mm (0.00 in.)
9:29 26.0°C (78.8 °F) 13.0 kmh (8.1 mph) SSW 69% 1019.0hPa (30.09 inHg) 0.0mm (0.00 in.)
8:29 24.0°C (75.2 °F) 9.3 kmh (5.8 mph) SSW 78% 1019.0hPa (30.09 inHg) 0.0mm (0.00 in.)
7:29 22.0°C (71.6 °F) 9.3 kmh (5.8 mph) SSW 83% 1019.0hPa (30.09 inHg) 0.0mm (0.00 in.)